sensor_id;sensor_type;location;lat;lon;timestamp;P1;durP1;ratioP1;P2;durP2;ratioP2
2728;SDS011;1372;47.956;7.830;2022-10-04T00:01:45;5.17;;;4.10;;
2728;SDS011;1372;47.956;7.830;2022-10-04T00:04:18;6.60;;;4.13;;
2728;SDS011;1372;47.956;7.830;2022-10-04T00:06:54;4.47;;;3.60;;
2728;SDS011;1372;47.956;7.830;2022-10-04T00:09:28;4.17;;;3.77;;
2728;SDS011;1372;47.956;7.830;2022-10-04T00:12:01;4.37;;;3.97;;
2728;SDS011;1372;47.956;7.830;2022-10-04T00:14:34;3.77;;;3.47;;
2728;SDS011;1372;47.956;7.830;2022-10-04T00:17:08;6.20;;;4.37;;
2728;SDS011;1372;47.956;7.830;2022-10-04T00:19:43;4.17;;;3.83;;
2728;SDS011;1372;47.956;7.830;2022-10-04T00:22:15;4.20;;;3.80;;
2728;SDS011;1372;47.956;7.830;2022-10-04T00:25:13;4.80;;;3.20;;
2728;SDS011;1372;47.956;7.830;2022-10-04T00:30:44;4.53;;;4.10;;
2728;SDS011;1372;47.956;7.830;2022-10-04T00:33:15;6.40;;;4.60;;
2728;SDS011;1372;47.956;7.830;2022-10-04T00:39:17;5.57;;;3.80;;
2728;SDS011;1372;47.956;7.830;2022-10-04T00:42:08;3.40;;;3.10;;
2728;SDS011;1372;47.956;7.830;2022-10-04T00:45:11;6.10;;;3.57;;
2728;SDS011;1372;47.956;7.830;2022-10-04T00:47:55;3.53;;;3.20;;
2728;SDS011;1372;47.956;7.830;2022-10-04T00:50:32;3.70;;;3.40;;
2728;SDS011;1372;47.956;7.830;2022-10-04T00:53:12;3.70;;;3.37;;
2728;SDS011;1372;47.956;7.830;2022-10-04T00:55:50;3.80;;;3.50;;
2728;SDS011;1372;47.956;7.830;2022-10-04T00:58:24;4.43;;;2.87;;
2728;SDS011;1372;47.956;7.830;2022-10-04T01:00:56;4.23;;;3.87;;
2728;SDS011;1372;47.956;7.830;2022-10-04T01:03:26;4.20;;;3.80;;
2728;SDS011;1372;47.956;7.830;2022-10-04T01:06:00;4.00;;;3.70;;
2728;SDS011;1372;47.956;7.830;2022-10-04T01:08:34;4.30;;;3.90;;
2728;SDS011;1372;47.956;7.830;2022-10-04T01:11:08;3.73;;;3.43;;
2728;SDS011;1372;47.956;7.830;2022-10-04T01:13:41;4.30;;;3.40;;
2728;SDS011;1372;47.956;7.830;2022-10-04T01:16:16;3.23;;;3.03;;
2728;SDS011;1372;47.956;7.830;2022-10-04T01:18:51;3.93;;;3.63;;
2728;SDS011;1372;47.956;7.830;2022-10-04T01:21:22;4.07;;;3.53;;
2728;SDS011;1372;47.956;7.830;2022-10-04T01:26:48;7.57;;;3.47;;
2728;SDS011;1372;47.956;7.830;2022-10-04T01:29:17;4.23;;;3.67;;
2728;SDS011;1372;47.956;7.830;2022-10-04T01:31:56;4.20;;;3.80;;
2728;SDS011;1372;47.956;7.830;2022-10-04T01:34:27;3.77;;;3.30;;
2728;SDS011;1372;47.956;7.830;2022-10-04T01:36:57;4.40;;;3.90;;
2728;SDS011;1372;47.956;7.830;2022-10-04T01:39:28;4.07;;;3.23;;
2728;SDS011;1372;47.956;7.830;2022-10-04T01:41:58;3.90;;;3.40;;
2728;SDS011;1372;47.956;7.830;2022-10-04T01:44:32;6.30;;;3.20;;
2728;SDS011;1372;47.956;7.830;2022-10-04T01:47:07;4.00;;;3.60;;
2728;SDS011;1372;47.956;7.830;2022-10-04T01:49:41;3.37;;;3.07;;
2728;SDS011;1372;47.956;7.830;2022-10-04T01:52:13;3.93;;;3.33;;
2728;SDS011;1372;47.956;7.830;2022-10-04T01:54:50;4.47;;;4.17;;
2728;SDS011;1372;47.956;7.830;2022-10-04T01:57:29;3.63;;;3.03;;
2728;SDS011;1372;47.956;7.830;2022-10-04T02:00:05;3.80;;;3.47;;
2728;SDS011;1372;47.956;7.830;2022-10-04T02:02:39;3.70;;;3.00;;
2728;SDS011;1372;47.956;7.830;2022-10-04T02:05:17;4.40;;;3.63;;
2728;SDS011;1372;47.956;7.830;2022-10-04T02:07:53;4.20;;;3.80;;
2728;SDS011;1372;47.956;7.830;2022-10-04T02:10:25;4.10;;;3.37;;
2728;SDS011;1372;47.956;7.830;2022-10-04T02:12:53;4.30;;;3.87;;
2728;SDS011;1372;47.956;7.830;2022-10-04T02:15:25;5.70;;;3.67;;
2728;SDS011;1372;47.956;7.830;2022-10-04T02:17:54;3.73;;;3.43;;
2728;SDS011;1372;47.956;7.830;2022-10-04T02:20:25;3.93;;;3.53;;
2728;SDS011;1372;47.956;7.830;2022-10-04T02:22:54;4.20;;;3.80;;
2728;SDS011;1372;47.956;7.830;2022-10-04T02:25:30;4.10;;;3.70;;
2728;SDS011;1372;47.956;7.830;2022-10-04T02:27:59;4.10;;;3.70;;
2728;SDS011;1372;47.956;7.830;2022-10-04T02:30:33;4.40;;;3.80;;
2728;SDS011;1372;47.956;7.830;2022-10-04T02:33:05;4.00;;;3.60;;
2728;SDS011;1372;47.956;7.830;2022-10-04T02:35:35;3.80;;;3.50;;
2728;SDS011;1372;47.956;7.830;2022-10-04T02:38:11;4.20;;;3.90;;
2728;SDS011;1372;47.956;7.830;2022-10-04T02:40:52;4.63;;;4.20;;
2728;SDS011;1372;47.956;7.830;2022-10-04T02:43:26;5.33;;;4.10;;
2728;SDS011;1372;47.956;7.830;2022-10-04T02:46:03;7.13;;;4.23;;
2728;SDS011;1372;47.956;7.830;2022-10-04T02:48:40;4.40;;;3.77;;
2728;SDS011;1372;47.956;7.830;2022-10-04T02:51:16;3.40;;;3.10;;
2728;SDS011;1372;47.956;7.830;2022-10-04T02:53:55;3.43;;;3.13;;
2728;SDS011;1372;47.956;7.830;2022-10-04T02:56:32;3.97;;;3.43;;
2728;SDS011;1372;47.956;7.830;2022-10-04T02:59:02;4.30;;;3.60;;
2728;SDS011;1372;47.956;7.830;2022-10-04T03:01:38;4.07;;;3.77;;
2728;SDS011;1372;47.956;7.830;2022-10-04T03:04:15;3.90;;;3.50;;
2728;SDS011;1372;47.956;7.830;2022-10-04T03:06:48;6.47;;;4.40;;
2728;SDS011;1372;47.956;7.830;2022-10-04T03:09:18;3.70;;;3.00;;
2728;SDS011;1372;47.956;7.830;2022-10-04T03:11:56;4.40;;;3.33;;
2728;SDS011;1372;47.956;7.830;2022-10-04T03:14:25;3.40;;;3.10;;
2728;SDS011;1372;47.956;7.830;2022-10-04T03:16:56;4.87;;;4.47;;
2728;SDS011;1372;47.956;7.830;2022-10-04T03:19:30;4.60;;;4.20;;
2728;SDS011;1372;47.956;7.830;2022-10-04T03:22:03;4.10;;;3.43;;
2728;SDS011;1372;47.956;7.830;2022-10-04T03:24:36;4.07;;;3.40;;
2728;SDS011;1372;47.956;7.830;2022-10-04T03:27:14;3.63;;;3.33;;
2728;SDS011;1372;47.956;7.830;2022-10-04T03:29:48;4.63;;;2.97;;
2728;SDS011;1372;47.956;7.830;2022-10-04T03:32:20;3.40;;;3.10;;
2728;SDS011;1372;47.956;7.830;2022-10-04T03:34:50;3.10;;;2.80;;
2728;SDS011;1372;47.956;7.830;2022-10-04T03:37:23;3.50;;;3.13;;
2728;SDS011;1372;47.956;7.830;2022-10-04T03:39:53;3.80;;;3.30;;
2728;SDS011;1372;47.956;7.830;2022-10-04T03:42:25;3.70;;;2.93;;
2728;SDS011;1372;47.956;7.830;2022-10-04T03:44:58;3.20;;;2.90;;
2728;SDS011;1372;47.956;7.830;2022-10-04T03:47:34;2.97;;;2.70;;
2728;SDS011;1372;47.956;7.830;2022-10-04T03:50:10;3.83;;;3.23;;
2728;SDS011;1372;47.956;7.830;2022-10-04T03:52:47;6.67;;;4.47;;
2728;SDS011;1372;47.956;7.830;2022-10-04T03:55:20;6.77;;;5.03;;
2728;SDS011;1372;47.956;7.830;2022-10-04T03:57:54;5.40;;;4.90;;
2728;SDS011;1372;47.956;7.830;2022-10-04T04:00:23;5.20;;;4.50;;
2728;SDS011;1372;47.956;7.830;2022-10-04T04:02:56;8.77;;;5.67;;
2728;SDS011;1372;47.956;7.830;2022-10-04T04:05:27;5.40;;;4.60;;
2728;SDS011;1372;47.956;7.830;2022-10-04T04:08:01;8.20;;;7.40;;
2728;SDS011;1372;47.956;7.830;2022-10-04T04:10:34;6.20;;;5.57;;
2728;SDS011;1372;47.956;7.830;2022-10-04T04:13:21;7.90;;;7.20;;
2728;SDS011;1372;47.956;7.830;2022-10-04T04:15:55;6.63;;;5.10;;
2728;SDS011;1372;47.956;7.830;2022-10-04T04:18:29;6.00;;;5.40;;
2728;SDS011;1372;47.956;7.830;2022-10-04T04:21:01;5.80;;;4.80;;
2728;SDS011;1372;47.956;7.830;2022-10-04T04:23:32;4.20;;;3.90;;
2728;SDS011;1372;47.956;7.830;2022-10-04T04:26:10;4.80;;;4.40;;
2728;SDS011;1372;47.956;7.830;2022-10-04T04:28:48;5.10;;;4.30;;
2728;SDS011;1372;47.956;7.830;2022-10-04T04:31:19;4.70;;;4.30;;
2728;SDS011;1372;47.956;7.830;2022-10-04T04:33:54;5.10;;;3.90;;
2728;SDS011;1372;47.956;7.830;2022-10-04T04:36:26;6.23;;;5.57;;
2728;SDS011;1372;47.956;7.830;2022-10-04T04:39:06;6.00;;;5.43;;
2728;SDS011;1372;47.956;7.830;2022-10-04T04:41:56;17.20;;;14.00;;
2728;SDS011;1372;47.956;7.830;2022-10-04T04:44:27;63.87;;;42.50;;
2728;SDS011;1372;47.956;7.830;2022-10-04T04:46:56;24.00;;;15.63;;
2728;SDS011;1372;47.956;7.830;2022-10-04T04:49:26;18.83;;;15.03;;
2728;SDS011;1372;47.956;7.830;2022-10-04T04:51:57;16.90;;;12.20;;
2728;SDS011;1372;47.956;7.830;2022-10-04T04:54:25;22.90;;;18.07;;
2728;SDS011;1372;47.956;7.830;2022-10-04T04:56:54;12.57;;;10.77;;
2728;SDS011;1372;47.956;7.830;2022-10-04T04:59:24;9.87;;;8.20;;
2728;SDS011;1372;47.956;7.830;2022-10-04T05:01:55;11.93;;;7.13;;
2728;SDS011;1372;47.956;7.830;2022-10-04T05:04:24;10.70;;;7.20;;
2728;SDS011;1372;47.956;7.830;2022-10-04T05:06:59;8.47;;;7.27;;
2728;SDS011;1372;47.956;7.830;2022-10-04T05:09:33;8.40;;;6.80;;
2728;SDS011;1372;47.956;7.830;2022-10-04T05:12:05;7.73;;;5.97;;
2728;SDS011;1372;47.956;7.830;2022-10-04T05:14:45;6.93;;;6.23;;
2728;SDS011;1372;47.956;7.830;2022-10-04T05:17:16;7.00;;;6.17;;
2728;SDS011;1372;47.956;7.830;2022-10-04T05:19:48;9.50;;;6.10;;
2728;SDS011;1372;47.956;7.830;2022-10-04T05:22:19;6.60;;;5.80;;
2728;SDS011;1372;47.956;7.830;2022-10-04T05:24:50;5.70;;;5.13;;
2728;SDS011;1372;47.956;7.830;2022-10-04T05:27:26;5.77;;;5.17;;
2728;SDS011;1372;47.956;7.830;2022-10-04T05:30:02;6.43;;;5.73;;
2728;SDS011;1372;47.956;7.830;2022-10-04T05:32:37;5.03;;;4.50;;
2728;SDS011;1372;47.956;7.830;2022-10-04T05:35:18;5.43;;;4.93;;
2728;SDS011;1372;47.956;7.830;2022-10-04T05:37:59;4.97;;;4.47;;
2728;SDS011;1372;47.956;7.830;2022-10-04T05:40:38;5.00;;;4.50;;
2728;SDS011;1372;47.956;7.830;2022-10-04T05:43:19;4.90;;;4.50;;
2728;SDS011;1372;47.956;7.830;2022-10-04T05:46:07;6.30;;;5.70;;
2728;SDS011;1372;47.956;7.830;2022-10-04T05:48:47;7.13;;;6.33;;
2728;SDS011;1372;47.956;7.830;2022-10-04T05:51:21;5.50;;;5.00;;
2728;SDS011;1372;47.956;7.830;2022-10-04T05:53:53;5.60;;;5.10;;
2728;SDS011;1372;47.956;7.830;2022-10-04T05:56:31;5.90;;;4.80;;
2728;SDS011;1372;47.956;7.830;2022-10-04T05:59:40;8.20;;;7.40;;
2728;SDS011;1372;47.956;7.830;2022-10-04T06:02:34;6.63;;;6.03;;
2728;SDS011;1372;47.956;7.830;2022-10-04T06:05:27;5.40;;;4.90;;
2728;SDS011;1372;47.956;7.830;2022-10-04T06:08:15;4.77;;;3.70;;
2728;SDS011;1372;47.956;7.830;2022-10-04T06:11:00;4.67;;;4.27;;
2728;SDS011;1372;47.956;7.830;2022-10-04T06:13:46;4.60;;;4.20;;
2728;SDS011;1372;47.956;7.830;2022-10-04T06:16:56;4.83;;;4.33;;
2728;SDS011;1372;47.956;7.830;2022-10-04T06:20:03;5.27;;;4.40;;
2728;SDS011;1372;47.956;7.830;2022-10-04T06:22:55;4.50;;;4.10;;
2728;SDS011;1372;47.956;7.830;2022-10-04T06:25:28;4.70;;;4.30;;
2728;SDS011;1372;47.956;7.830;2022-10-04T06:28:03;4.43;;;4.03;;
2728;SDS011;1372;47.956;7.830;2022-10-04T06:30:50;4.93;;;4.53;;
2728;SDS011;1372;47.956;7.830;2022-10-04T06:33:41;5.10;;;4.70;;
2728;SDS011;1372;47.956;7.830;2022-10-04T06:36:48;8.13;;;7.33;;
2728;SDS011;1372;47.956;7.830;2022-10-04T06:43:12;18.43;;;14.47;;
2728;SDS011;1372;47.956;7.830;2022-10-04T06:45:55;7.63;;;6.87;;
2728;SDS011;1372;47.956;7.830;2022-10-04T06:48:49;7.10;;;6.37;;
2728;SDS011;1372;47.956;7.830;2022-10-04T06:51:41;7.47;;;5.73;;
2728;SDS011;1372;47.956;7.830;2022-10-04T06:54:32;5.47;;;4.97;;
2728;SDS011;1372;47.956;7.830;2022-10-04T06:57:24;5.63;;;5.13;;
2728;SDS011;1372;47.956;7.830;2022-10-04T07:00:07;6.70;;;5.10;;
2728;SDS011;1372;47.956;7.830;2022-10-04T07:02:45;6.20;;;5.10;;
2728;SDS011;1372;47.956;7.830;2022-10-04T07:05:21;5.40;;;4.90;;
2728;SDS011;1372;47.956;7.830;2022-10-04T07:08:02;7.00;;;4.80;;
2728;SDS011;1372;47.956;7.830;2022-10-04T07:10:39;7.07;;;5.40;;
2728;SDS011;1372;47.956;7.830;2022-10-04T07:13:20;8.00;;;5.90;;
2728;SDS011;1372;47.956;7.830;2022-10-04T07:16:00;7.30;;;5.60;;
2728;SDS011;1372;47.956;7.830;2022-10-04T07:18:36;9.43;;;6.60;;
2728;SDS011;1372;47.956;7.830;2022-10-04T07:21:32;10.43;;;8.03;;
2728;SDS011;1372;47.956;7.830;2022-10-04T07:24:08;13.37;;;8.87;;
2728;SDS011;1372;47.956;7.830;2022-10-04T07:26:47;12.50;;;8.80;;
2728;SDS011;1372;47.956;7.830;2022-10-04T07:29:18;7.20;;;6.50;;
2728;SDS011;1372;47.956;7.830;2022-10-04T07:31:53;9.10;;;7.10;;
2728;SDS011;1372;47.956;7.830;2022-10-04T07:34:35;7.87;;;7.17;;
2728;SDS011;1372;47.956;7.830;2022-10-04T07:37:11;7.93;;;6.70;;
2728;SDS011;1372;47.956;7.830;2022-10-04T07:39:44;7.47;;;6.00;;
2728;SDS011;1372;47.956;7.830;2022-10-04T07:42:21;8.53;;;7.00;;
2728;SDS011;1372;47.956;7.830;2022-10-04T07:44:58;10.60;;;6.37;;
2728;SDS011;1372;47.956;7.830;2022-10-04T07:47:37;7.40;;;5.17;;
2728;SDS011;1372;47.956;7.830;2022-10-04T07:50:19;7.87;;;5.93;;
2728;SDS011;1372;47.956;7.830;2022-10-04T07:52:53;7.67;;;6.33;;
2728;SDS011;1372;47.956;7.830;2022-10-04T07:55:31;7.37;;;6.50;;
2728;SDS011;1372;47.956;7.830;2022-10-04T07:58:18;7.13;;;6.50;;
2728;SDS011;1372;47.956;7.830;2022-10-04T08:01:09;8.83;;;6.43;;
2728;SDS011;1372;47.956;7.830;2022-10-04T08:04:04;7.07;;;6.47;;
2728;SDS011;1372;47.956;7.830;2022-10-04T08:06:50;7.33;;;6.50;;
2728;SDS011;1372;47.956;7.830;2022-10-04T08:09:36;6.77;;;5.90;;
2728;SDS011;1372;47.956;7.830;2022-10-04T08:12:19;8.80;;;7.50;;
2728;SDS011;1372;47.956;7.830;2022-10-04T08:14:54;6.10;;;5.50;;
2728;SDS011;1372;47.956;7.830;2022-10-04T08:17:39;7.07;;;6.40;;
2728;SDS011;1372;47.956;7.830;2022-10-04T08:20:21;7.20;;;6.50;;
2728;SDS011;1372;47.956;7.830;2022-10-04T08:23:17;6.87;;;6.13;;
2728;SDS011;1372;47.956;7.830;2022-10-04T08:26:11;8.10;;;6.43;;
2728;SDS011;1372;47.956;7.830;2022-10-04T08:29:12;7.03;;;6.33;;
2728;SDS011;1372;47.956;7.830;2022-10-04T08:32:14;6.47;;;5.87;;
2728;SDS011;1372;47.956;7.830;2022-10-04T08:35:02;9.23;;;6.00;;
2728;SDS011;1372;47.956;7.830;2022-10-04T08:44:41;8.60;;;6.33;;
2728;SDS011;1372;47.956;7.830;2022-10-04T08:51:48;7.60;;;6.80;;
2728;SDS011;1372;47.956;7.830;2022-10-04T08:58:32;7.43;;;6.07;;
2728;SDS011;1372;47.956;7.830;2022-10-04T09:01:48;7.40;;;6.20;;
2728;SDS011;1372;47.956;7.830;2022-10-04T09:05:08;7.40;;;6.60;;
2728;SDS011;1372;47.956;7.830;2022-10-04T09:11:27;7.57;;;6.40;;
2728;SDS011;1372;47.956;7.830;2022-10-04T09:14:23;7.70;;;6.90;;
2728;SDS011;1372;47.956;7.830;2022-10-04T09:17:17;11.20;;;6.43;;
2728;SDS011;1372;47.956;7.830;2022-10-04T09:19:52;7.13;;;6.43;;
2728;SDS011;1372;47.956;7.830;2022-10-04T09:22:44;8.07;;;6.77;;
2728;SDS011;1372;47.956;7.830;2022-10-04T09:28:18;7.93;;;7.10;;
2728;SDS011;1372;47.956;7.830;2022-10-04T09:31:21;8.00;;;6.70;;
2728;SDS011;1372;47.956;7.830;2022-10-04T09:37:12;9.03;;;7.27;;
2728;SDS011;1372;47.956;7.830;2022-10-04T09:43:34;7.77;;;6.80;;
2728;SDS011;1372;47.956;7.830;2022-10-04T09:46:50;9.73;;;7.70;;
2728;SDS011;1372;47.956;7.830;2022-10-04T09:49:38;9.90;;;7.27;;
2728;SDS011;1372;47.956;7.830;2022-10-04T09:52:43;8.10;;;7.30;;
2728;SDS011;1372;47.956;7.830;2022-10-04T09:58:47;10.33;;;8.23;;
2728;SDS011;1372;47.956;7.830;2022-10-04T10:01:47;9.77;;;8.10;;
2728;SDS011;1372;47.956;7.830;2022-10-04T10:04:40;10.73;;;6.87;;
2728;SDS011;1372;47.956;7.830;2022-10-04T10:07:19;9.97;;;8.97;;
2728;SDS011;1372;47.956;7.830;2022-10-04T10:10:05;11.17;;;8.87;;
2728;SDS011;1372;47.956;7.830;2022-10-04T10:16:18;11.90;;;9.70;;
2728;SDS011;1372;47.956;7.830;2022-10-04T10:25:56;11.17;;;9.07;;
2728;SDS011;1372;47.956;7.830;2022-10-04T10:28:58;11.30;;;9.67;;
2728;SDS011;1372;47.956;7.830;2022-10-04T10:31:57;10.37;;;9.00;;
2728;SDS011;1372;47.956;7.830;2022-10-04T10:37:52;10.73;;;8.30;;
2728;SDS011;1372;47.956;7.830;2022-10-04T10:40:46;10.67;;;8.77;;
2728;SDS011;1372;47.956;7.830;2022-10-04T10:43:53;10.87;;;9.27;;
2728;SDS011;1372;47.956;7.830;2022-10-04T10:46:49;10.57;;;9.47;;
2728;SDS011;1372;47.956;7.830;2022-10-04T11:03:00;9.40;;;8.40;;
2728;SDS011;1372;47.956;7.830;2022-10-04T11:06:30;10.13;;;9.13;;
2728;SDS011;1372;47.956;7.830;2022-10-04T11:09:52;11.07;;;8.97;;
2728;SDS011;1372;47.956;7.830;2022-10-04T11:13:10;7.93;;;7.13;;
2728;SDS011;1372;47.956;7.830;2022-10-04T11:16:44;9.40;;;8.27;;
2728;SDS011;1372;47.956;7.830;2022-10-04T11:19:48;9.10;;;8.27;;
2728;SDS011;1372;47.956;7.830;2022-10-04T11:26:27;7.93;;;7.13;;
2728;SDS011;1372;47.956;7.830;2022-10-04T11:29:20;8.87;;;7.97;;
2728;SDS011;1372;47.956;7.830;2022-10-04T11:32:13;9.20;;;7.13;;
2728;SDS011;1372;47.956;7.830;2022-10-04T11:35:31;9.00;;;7.40;;
2728;SDS011;1372;47.956;7.830;2022-10-04T11:38:31;10.00;;;7.40;;
2728;SDS011;1372;47.956;7.830;2022-10-04T11:41:37;7.07;;;5.97;;
2728;SDS011;1372;47.956;7.830;2022-10-04T11:47:51;8.10;;;7.00;;
2728;SDS011;1372;47.956;7.830;2022-10-04T11:50:40;8.53;;;6.83;;
2728;SDS011;1372;47.956;7.830;2022-10-04T11:53:44;10.50;;;7.90;;
2728;SDS011;1372;47.956;7.830;2022-10-04T11:57:11;7.87;;;6.63;;
2728;SDS011;1372;47.956;7.830;2022-10-04T11:59:56;7.90;;;7.10;;
2728;SDS011;1372;47.956;7.830;2022-10-04T12:06:18;7.93;;;7.10;;
2728;SDS011;1372;47.956;7.830;2022-10-04T12:09:02;8.60;;;7.00;;
2728;SDS011;1372;47.956;7.830;2022-10-04T12:11:43;7.17;;;6.53;;
2728;SDS011;1372;47.956;7.830;2022-10-04T12:18:16;8.50;;;7.00;;
2728;SDS011;1372;47.956;7.830;2022-10-04T12:21:35;9.27;;;7.50;;
2728;SDS011;1372;47.956;7.830;2022-10-04T12:27:45;8.90;;;7.43;;
2728;SDS011;1372;47.956;7.830;2022-10-04T12:30:53;10.63;;;7.07;;
2728;SDS011;1372;47.956;7.830;2022-10-04T12:33:43;7.90;;;7.10;;
2728;SDS011;1372;47.956;7.830;2022-10-04T12:36:26;7.10;;;6.40;;
2728;SDS011;1372;47.956;7.830;2022-10-04T12:39:11;7.70;;;6.90;;
2728;SDS011;1372;47.956;7.830;2022-10-04T12:42:00;7.37;;;6.67;;
2728;SDS011;1372;47.956;7.830;2022-10-04T12:44:57;6.70;;;6.00;;
2728;SDS011;1372;47.956;7.830;2022-10-04T12:47:55;6.53;;;5.90;;
2728;SDS011;1372;47.956;7.830;2022-10-04T12:50:44;6.30;;;5.70;;
2728;SDS011;1372;47.956;7.830;2022-10-04T12:53:22;9.33;;;6.20;;
2728;SDS011;1372;47.956;7.830;2022-10-04T12:56:04;7.07;;;6.33;;
2728;SDS011;1372;47.956;7.830;2022-10-04T12:58:56;7.20;;;6.07;;
2728;SDS011;1372;47.956;7.830;2022-10-04T13:01:41;7.87;;;6.20;;
2728;SDS011;1372;47.956;7.830;2022-10-04T13:04:27;7.10;;;5.77;;
2728;SDS011;1372;47.956;7.830;2022-10-04T13:07:12;6.10;;;5.20;;
2728;SDS011;1372;47.956;7.830;2022-10-04T13:10:21;6.33;;;5.57;;
2728;SDS011;1372;47.956;7.830;2022-10-04T13:16:34;6.53;;;5.93;;
2728;SDS011;1372;47.956;7.830;2022-10-04T13:19:35;7.67;;;6.10;;
2728;SDS011;1372;47.956;7.830;2022-10-04T13:22:18;8.90;;;5.10;;
2728;SDS011;1372;47.956;7.830;2022-10-04T13:29:02;5.70;;;5.20;;
2728;SDS011;1372;47.956;7.830;2022-10-04T13:31:45;10.13;;;5.43;;
2728;SDS011;1372;47.956;7.830;2022-10-04T13:34:24;7.50;;;5.40;;
2728;SDS011;1372;47.956;7.830;2022-10-04T13:40:00;5.60;;;5.10;;
2728;SDS011;1372;47.956;7.830;2022-10-04T13:43:17;5.67;;;5.17;;
2728;SDS011;1372;47.956;7.830;2022-10-04T13:46:36;5.47;;;4.37;;
2728;SDS011;1372;47.956;7.830;2022-10-04T13:49:29;6.07;;;4.73;;
2728;SDS011;1372;47.956;7.830;2022-10-04T13:52:18;5.80;;;5.07;;
2728;SDS011;1372;47.956;7.830;2022-10-04T13:55:25;5.87;;;5.27;;
2728;SDS011;1372;47.956;7.830;2022-10-04T13:58:28;5.13;;;4.73;;
2728;SDS011;1372;47.956;7.830;2022-10-04T14:04:23;5.03;;;4.50;;
2728;SDS011;1372;47.956;7.830;2022-10-04T14:07:20;5.30;;;4.83;;
2728;SDS011;1372;47.956;7.830;2022-10-04T14:10:10;6.67;;;4.80;;
2728;SDS011;1372;47.956;7.830;2022-10-04T14:16:29;4.90;;;4.50;;
2728;SDS011;1372;47.956;7.830;2022-10-04T14:19:56;5.03;;;4.63;;
2728;SDS011;1372;47.956;7.830;2022-10-04T14:23:12;6.20;;;4.83;;
2728;SDS011;1372;47.956;7.830;2022-10-04T14:26:34;5.33;;;4.70;;
2728;SDS011;1372;47.956;7.830;2022-10-04T14:29:38;4.37;;;4.07;;
2728;SDS011;1372;47.956;7.830;2022-10-04T14:36:08;6.00;;;5.40;;
2728;SDS011;1372;47.956;7.830;2022-10-04T14:39:11;7.13;;;5.37;;
2728;SDS011;1372;47.956;7.830;2022-10-04T14:42:08;6.57;;;5.80;;
2728;SDS011;1372;47.956;7.830;2022-10-04T14:45:16;5.80;;;5.20;;
2728;SDS011;1372;47.956;7.830;2022-10-04T14:51:23;6.10;;;5.50;;
2728;SDS011;1372;47.956;7.830;2022-10-04T14:54:35;15.20;;;9.60;;
2728;SDS011;1372;47.956;7.830;2022-10-04T14:57:14;5.80;;;5.30;;
2728;SDS011;1372;47.956;7.830;2022-10-04T14:59:59;5.70;;;5.07;;
2728;SDS011;1372;47.956;7.830;2022-10-04T15:03:14;6.10;;;5.30;;
2728;SDS011;1372;47.956;7.830;2022-10-04T15:06:03;7.73;;;6.33;;
2728;SDS011;1372;47.956;7.830;2022-10-04T15:08:59;5.90;;;5.33;;
2728;SDS011;1372;47.956;7.830;2022-10-04T15:12:40;6.10;;;5.60;;
2728;SDS011;1372;47.956;7.830;2022-10-04T15:15:40;7.10;;;5.50;;
2728;SDS011;1372;47.956;7.830;2022-10-04T15:18:30;6.20;;;5.67;;
2728;SDS011;1372;47.956;7.830;2022-10-04T15:21:19;10.47;;;9.40;;
2728;SDS011;1372;47.956;7.830;2022-10-04T15:27:16;9.27;;;8.27;;
2728;SDS011;1372;47.956;7.830;2022-10-04T15:30:12;9.50;;;8.60;;
2728;SDS011;1372;47.956;7.830;2022-10-04T15:32:51;7.10;;;6.43;;
2728;SDS011;1372;47.956;7.830;2022-10-04T15:35:38;6.73;;;6.13;;
2728;SDS011;1372;47.956;7.830;2022-10-04T15:38:32;5.90;;;5.40;;
2728;SDS011;1372;47.956;7.830;2022-10-04T15:41:12;7.33;;;5.17;;
2728;SDS011;1372;47.956;7.830;2022-10-04T15:43:56;4.87;;;4.47;;
2728;SDS011;1372;47.956;7.830;2022-10-04T15:47:03;5.30;;;4.87;;
2728;SDS011;1372;47.956;7.830;2022-10-04T15:49:47;5.30;;;4.80;;
2728;SDS011;1372;47.956;7.830;2022-10-04T15:55:33;5.47;;;5.00;;
2728;SDS011;1372;47.956;7.830;2022-10-04T15:58:36;7.00;;;4.40;;
2728;SDS011;1372;47.956;7.830;2022-10-04T16:04:44;5.67;;;5.10;;
2728;SDS011;1372;47.956;7.830;2022-10-04T16:07:35;5.73;;;5.23;;
2728;SDS011;1372;47.956;7.830;2022-10-04T16:10:18;6.20;;;5.67;;
2728;SDS011;1372;47.956;7.830;2022-10-04T16:13:02;6.10;;;5.60;;
2728;SDS011;1372;47.956;7.830;2022-10-04T16:19:35;6.00;;;5.60;;
2728;SDS011;1372;47.956;7.830;2022-10-04T16:26:00;5.30;;;4.80;;
2728;SDS011;1372;47.956;7.830;2022-10-04T16:28:58;6.10;;;5.60;;
2728;SDS011;1372;47.956;7.830;2022-10-04T16:31:44;5.00;;;4.60;;
2728;SDS011;1372;47.956;7.830;2022-10-04T16:37:33;6.37;;;5.83;;
2728;SDS011;1372;47.956;7.830;2022-10-04T16:40:18;4.90;;;4.50;;
2728;SDS011;1372;47.956;7.830;2022-10-04T16:43:01;7.80;;;7.07;;
2728;SDS011;1372;47.956;7.830;2022-10-04T16:45:42;5.07;;;4.67;;
2728;SDS011;1372;47.956;7.830;2022-10-04T16:48:31;5.10;;;4.60;;
2728;SDS011;1372;47.956;7.830;2022-10-04T16:54:38;5.67;;;5.17;;
2728;SDS011;1372;47.956;7.830;2022-10-04T16:57:28;5.00;;;4.60;;
2728;SDS011;1372;47.956;7.830;2022-10-04T16:59:58;5.50;;;4.87;;
2728;SDS011;1372;47.956;7.830;2022-10-04T17:03:06;6.13;;;5.53;;
2728;SDS011;1372;47.956;7.830;2022-10-04T17:05:45;6.80;;;6.13;;
2728;SDS011;1372;47.956;7.830;2022-10-04T17:08:38;7.60;;;4.60;;
2728;SDS011;1372;47.956;7.830;2022-10-04T17:14:29;5.60;;;5.10;;
2728;SDS011;1372;47.956;7.830;2022-10-04T17:17:17;5.53;;;5.03;;
2728;SDS011;1372;47.956;7.830;2022-10-04T17:20:01;6.20;;;5.60;;
2728;SDS011;1372;47.956;7.830;2022-10-04T17:22:42;5.80;;;5.30;;
2728;SDS011;1372;47.956;7.830;2022-10-04T17:25:26;6.77;;;6.17;;
2728;SDS011;1372;47.956;7.830;2022-10-04T17:28:10;7.00;;;5.90;;
2728;SDS011;1372;47.956;7.830;2022-10-04T17:30:59;5.67;;;5.20;;
2728;SDS011;1372;47.956;7.830;2022-10-04T17:33:39;6.40;;;5.73;;
2728;SDS011;1372;47.956;7.830;2022-10-04T17:36:24;6.87;;;5.50;;
2728;SDS011;1372;47.956;7.830;2022-10-04T17:39:13;6.20;;;5.70;;
2728;SDS011;1372;47.956;7.830;2022-10-04T17:41:59;5.73;;;5.23;;
2728;SDS011;1372;47.956;7.830;2022-10-04T17:47:53;5.87;;;5.30;;
2728;SDS011;1372;47.956;7.830;2022-10-04T17:50:46;6.10;;;5.50;;
2728;SDS011;1372;47.956;7.830;2022-10-04T17:53:43;6.67;;;5.97;;
2728;SDS011;1372;47.956;7.830;2022-10-04T17:56:34;8.80;;;7.00;;
2728;SDS011;1372;47.956;7.830;2022-10-04T17:59:11;7.07;;;6.13;;
2728;SDS011;1372;47.956;7.830;2022-10-04T18:01:46;6.10;;;5.60;;
2728;SDS011;1372;47.956;7.830;2022-10-04T18:04:22;7.63;;;7.03;;
2728;SDS011;1372;47.956;7.830;2022-10-04T18:06:56;6.70;;;6.00;;
2728;SDS011;1372;47.956;7.830;2022-10-04T18:09:39;7.63;;;6.70;;
2728;SDS011;1372;47.956;7.830;2022-10-04T18:12:13;5.73;;;5.10;;
2728;SDS011;1372;47.956;7.830;2022-10-04T18:15:00;7.40;;;6.57;;
2728;SDS011;1372;47.956;7.830;2022-10-04T18:17:35;6.50;;;5.60;;
2728;SDS011;1372;47.956;7.830;2022-10-04T18:20:23;6.63;;;6.00;;
2728;SDS011;1372;47.956;7.830;2022-10-04T18:23:05;11.97;;;9.10;;
2728;SDS011;1372;47.956;7.830;2022-10-04T18:25:43;31.43;;;21.10;;
2728;SDS011;1372;47.956;7.830;2022-10-04T18:28:13;19.20;;;14.03;;
2728;SDS011;1372;47.956;7.830;2022-10-04T18:30:53;18.83;;;15.10;;
2728;SDS011;1372;47.956;7.830;2022-10-04T18:33:29;13.37;;;11.97;;
2728;SDS011;1372;47.956;7.830;2022-10-04T18:36:14;9.47;;;7.50;;
2728;SDS011;1372;47.956;7.830;2022-10-04T18:38:57;6.40;;;5.80;;
2728;SDS011;1372;47.956;7.830;2022-10-04T18:41:30;5.80;;;5.20;;
2728;SDS011;1372;47.956;7.830;2022-10-04T18:44:14;7.60;;;5.80;;
2728;SDS011;1372;47.956;7.830;2022-10-04T18:46:48;7.00;;;6.30;;
2728;SDS011;1372;47.956;7.830;2022-10-04T18:49:23;6.90;;;5.93;;
2728;SDS011;1372;47.956;7.830;2022-10-04T18:51:59;6.53;;;5.93;;
2728;SDS011;1372;47.956;7.830;2022-10-04T18:54:48;9.40;;;7.63;;
2728;SDS011;1372;47.956;7.830;2022-10-04T18:57:30;6.43;;;5.83;;
2728;SDS011;1372;47.956;7.830;2022-10-04T19:00:23;6.43;;;5.80;;
2728;SDS011;1372;47.956;7.830;2022-10-04T19:03:19;7.43;;;5.50;;
2728;SDS011;1372;47.956;7.830;2022-10-04T19:05:57;6.97;;;6.27;;
2728;SDS011;1372;47.956;7.830;2022-10-04T19:08:37;6.77;;;6.17;;
2728;SDS011;1372;47.956;7.830;2022-10-04T19:11:13;6.17;;;5.60;;
2728;SDS011;1372;47.956;7.830;2022-10-04T19:13:47;6.33;;;5.77;;
2728;SDS011;1372;47.956;7.830;2022-10-04T19:16:25;5.70;;;5.20;;
2728;SDS011;1372;47.956;7.830;2022-10-04T19:19:17;5.80;;;5.30;;
2728;SDS011;1372;47.956;7.830;2022-10-04T19:22:02;5.13;;;4.63;;